BIKF Airport Information

Runway Information
Runway 02 Length 10019 ft width 197 ft
Elevation 137 ft Threshold 19 ft Heading 360
Runway 20 Length 10019 ft Width 197 ft
Elevation 163 ft Threshold 19 ft Heading 180
Runway 11 Length 10056 ft width 197 ft
Elevation 111 ft Threshold 43 ft Heading 90
Runway 29 Length 10056 ft Width 197 ft
Elevation 171 ft Threshold 43 ft Heading 270
Airport Frequencies
Type A/G Name AIR GND Frequency 131.9 MHZ
Type APP Name APP Frequency 119.3 MHZ
Type ATIS Name ATIS Frequency 128.3 MHZ
Type DEP Name DEP Frequency 119.3 MHZ
Type GND Name GND Frequency 121.9 MHZ
Type OPS Name BASE OPS Frequency 129 MHZ
Type PMSV Name PMSV METR Frequency 125 MHZ
Type TWR Name TWR Frequency 118.3 MHZ
Airport Navaids
Type VORTAC Name Keflavik Frequency 112000 KHZ
Type NDB Name Keflavik Frequency 392 KHZ
Type NDB Name Oscar Kilo Frequency 364 KHZ
Airport Weather Information & NOTAM
ADDS - METARS form results

(0737 UTC 03 December 2021)
Data provider http://aviationweather.gov/metar/data/
 
METAR text: BIKF 030730Z 27004KT 6000 -SHSN FEW003 BKN027CB BKN039 M00/M00 Q0984
Conditions at: BIKF (KEFLAVIK (CIV/MI, IS) observed 0730 UTC 03 December 2021
Temperature: 0.0°C (32°F)
Dewpoint: 0.0°C (32°F) [RH = 100%]
Pressure (altimeter): 29.06 inches Hg (984.0 mb)
Winds: from the W (270 degrees) at 5 MPH (4 knots; 2.1 m/s)
Visibility: 4 miles ( 6 km)
Ceiling: 2700 feet AGL
Clouds: few clouds at 300 feet AGL
broken clouds at 2700 feet AGL
broken clouds at 3900 feet AGL
Weather: -SHSN  (light snow showers)

METAR text: BIKF 030700Z 22008KT 180V250 4000 -SHSN BKN011CB BKN019 00/M01 Q0985
Conditions at: BIKF (KEFLAVIK (CIV/MI, IS) observed 0700 UTC 03 December 2021
Temperature: 0.0°C (32°F)
Dewpoint: -1.0°C (30°F) [RH = 93%]
Pressure (altimeter): 29.08 inches Hg (985.0 mb)
Winds: from the SW (220 degrees) at 9 MPH (8 knots; 4.1 m/s)
Visibility: 2.49 miles (4.01 km)
Ceiling: 1100 feet AGL
Clouds: broken clouds at 1100 feet AGL
broken clouds at 1900 feet AGL
Weather: -SHSN  (light snow showers)

Forecast for: BIKF (KEFLAVIK (CIV/MI, IS)
Text: TAF BIKF 030731Z 0309/0409 22008KT 9999 FEW020 BKN030 TX00/0315Z TNM05/0409Z
Forecast period: 0900 UTC 03 December 2021 to 0900 UTC 04 December 2021
Forecast type: FROM: standard forecast or significant change
Winds: from the SW (220 degrees) at 9 MPH (8 knots; 4.1 m/s)
Visibility: 6 or more miles (10+ km)
Ceiling: 3000 feet AGL
Clouds: few clouds at 2000 feet AGL
broken clouds at 3000 feet AGL
Weather: no significant weather forecast for this period
Text: TEMPO 0309/0400 2000 SHSN BKN010CB
Forecast period: 0900 UTC 03 December 2021 to 0000 UTC 04 December 2021
Forecast type: TEMPORARY: The following changes expected for less than half the time period
Visibility: 1.24 miles (2.00 km)
Ceiling: 1000 feet AGL
Clouds: broken clouds at 1000 feet AGL
Weather: SHSN  (snow showers)